sensor_id;sensor_type;location;lat;lon;timestamp;temperature;humidity
45096;DHT22;30858;51.108;8.068;2023-04-24T00:01:17;8.90;99.90
45096;DHT22;30858;51.108;8.068;2023-04-24T00:03:44;8.80;99.90
45096;DHT22;30858;51.108;8.068;2023-04-24T00:06:10;8.90;99.90
45096;DHT22;30858;51.108;8.068;2023-04-24T00:08:35;8.80;99.90
45096;DHT22;30858;51.108;8.068;2023-04-24T00:11:01;8.90;99.90
45096;DHT22;30858;51.108;8.068;2023-04-24T00:13:27;8.90;99.90
45096;DHT22;30858;51.108;8.068;2023-04-24T00:15:54;8.90;99.90
45096;DHT22;30858;51.108;8.068;2023-04-24T00:18:20;8.90;99.90
45096;DHT22;30858;51.108;8.068;2023-04-24T00:20:45;8.80;99.90
45096;DHT22;30858;51.108;8.068;2023-04-24T00:23:12;8.90;99.90
45096;DHT22;30858;51.108;8.068;2023-04-24T00:25:38;8.90;99.90
45096;DHT22;30858;51.108;8.068;2023-04-24T00:28:03;9.00;99.90
45096;DHT22;30858;51.108;8.068;2023-04-24T00:30:29;9.00;99.90
45096;DHT22;30858;51.108;8.068;2023-04-24T00:32:55;9.00;99.90
45096;DHT22;30858;51.108;8.068;2023-04-24T00:35:20;9.00;99.90
45096;DHT22;30858;51.108;8.068;2023-04-24T00:37:46;9.00;99.90
45096;DHT22;30858;51.108;8.068;2023-04-24T00:40:11;8.90;99.90
45096;DHT22;30858;51.108;8.068;2023-04-24T00:42:37;9.00;99.90
45096;DHT22;30858;51.108;8.068;2023-04-24T00:45:04;9.10;99.90
45096;DHT22;30858;51.108;8.068;2023-04-24T00:47:30;9.10;99.90
45096;DHT22;30858;51.108;8.068;2023-04-24T00:49:56;9.00;99.90
45096;DHT22;30858;51.108;8.068;2023-04-24T00:52:22;9.00;99.90
45096;DHT22;30858;51.108;8.068;2023-04-24T00:54:49;9.00;99.90
45096;DHT22;30858;51.108;8.068;2023-04-24T00:57:15;9.10;99.90
45096;DHT22;30858;51.108;8.068;2023-04-24T00:59:42;9.20;99.90
45096;DHT22;30858;51.108;8.068;2023-04-24T01:02:09;9.20;99.90
45096;DHT22;30858;51.108;8.068;2023-04-24T01:04:36;9.20;99.90
45096;DHT22;30858;51.108;8.068;2023-04-24T01:07:01;9.30;99.90
45096;DHT22;30858;51.108;8.068;2023-04-24T01:09:27;9.40;99.90
45096;DHT22;30858;51.108;8.068;2023-04-24T01:11:53;9.30;99.90
45096;DHT22;30858;51.108;8.068;2023-04-24T01:14:19;9.30;99.90
45096;DHT22;30858;51.108;8.068;2023-04-24T01:16:45;9.30;99.90
45096;DHT22;30858;51.108;8.068;2023-04-24T01:19:11;9.20;99.90
45096;DHT22;30858;51.108;8.068;2023-04-24T01:21:38;9.30;99.90
45096;DHT22;30858;51.108;8.068;2023-04-24T01:24:05;9.20;99.90
45096;DHT22;30858;51.108;8.068;2023-04-24T01:26:31;9.20;99.90
45096;DHT22;30858;51.108;8.068;2023-04-24T01:28:57;9.20;99.90
45096;DHT22;30858;51.108;8.068;2023-04-24T01:31:23;9.20;99.90
45096;DHT22;30858;51.108;8.068;2023-04-24T01:33:49;9.20;99.90
45096;DHT22;30858;51.108;8.068;2023-04-24T01:36:16;9.20;99.90
45096;DHT22;30858;51.108;8.068;2023-04-24T01:38:42;9.10;99.90
45096;DHT22;30858;51.108;8.068;2023-04-24T01:41:07;9.20;99.90
45096;DHT22;30858;51.108;8.068;2023-04-24T01:43:33;9.20;99.90
45096;DHT22;30858;51.108;8.068;2023-04-24T01:45:58;9.20;99.90
45096;DHT22;30858;51.108;8.068;2023-04-24T01:48:24;9.30;99.90
45096;DHT22;30858;51.108;8.068;2023-04-24T01:50:50;9.20;99.90
45096;DHT22;30858;51.108;8.068;2023-04-24T01:53:15;9.20;99.90
45096;DHT22;30858;51.108;8.068;2023-04-24T01:55:41;9.30;99.90
45096;DHT22;30858;51.108;8.068;2023-04-24T01:58:07;9.30;99.90
45096;DHT22;30858;51.108;8.068;2023-04-24T02:00:32;9.30;99.90
45096;DHT22;30858;51.108;8.068;2023-04-24T02:02:58;9.30;99.90
45096;DHT22;30858;51.108;8.068;2023-04-24T02:05:23;9.30;99.90
45096;DHT22;30858;51.108;8.068;2023-04-24T02:07:49;9.30;99.90
45096;DHT22;30858;51.108;8.068;2023-04-24T02:10:15;9.30;99.90
45096;DHT22;30858;51.108;8.068;2023-04-24T02:12:40;9.30;99.90
45096;DHT22;30858;51.108;8.068;2023-04-24T02:15:06;9.30;99.90
45096;DHT22;30858;51.108;8.068;2023-04-24T02:17:32;9.30;99.90
45096;DHT22;30858;51.108;8.068;2023-04-24T02:19:57;9.30;99.90
45096;DHT22;30858;51.108;8.068;2023-04-24T02:22:23;9.40;99.90
45096;DHT22;30858;51.108;8.068;2023-04-24T02:24:48;9.40;99.90
45096;DHT22;30858;51.108;8.068;2023-04-24T02:27:14;9.40;99.90
45096;DHT22;30858;51.108;8.068;2023-04-24T02:29:40;9.40;99.90
45096;DHT22;30858;51.108;8.068;2023-04-24T02:32:05;9.40;99.90
45096;DHT22;30858;51.108;8.068;2023-04-24T02:34:31;9.40;99.90
45096;DHT22;30858;51.108;8.068;2023-04-24T02:36:56;9.40;99.90
45096;DHT22;30858;51.108;8.068;2023-04-24T02:39:22;9.40;99.90
45096;DHT22;30858;51.108;8.068;2023-04-24T02:41:47;9.40;99.90
45096;DHT22;30858;51.108;8.068;2023-04-24T02:44:13;9.40;99.90
45096;DHT22;30858;51.108;8.068;2023-04-24T02:46:38;9.40;99.90
45096;DHT22;30858;51.108;8.068;2023-04-24T02:49:06;9.40;99.90
45096;DHT22;30858;51.108;8.068;2023-04-24T02:51:32;9.50;99.90
45096;DHT22;30858;51.108;8.068;2023-04-24T02:53:57;9.40;99.90
45096;DHT22;30858;51.108;8.068;2023-04-24T02:56:23;9.40;99.90
45096;DHT22;30858;51.108;8.068;2023-04-24T02:58:48;9.40;99.90
45096;DHT22;30858;51.108;8.068;2023-04-24T03:01:14;9.40;99.90
45096;DHT22;30858;51.108;8.068;2023-04-24T03:03:39;9.30;99.90
45096;DHT22;30858;51.108;8.068;2023-04-24T03:06:05;9.30;99.90
45096;DHT22;30858;51.108;8.068;2023-04-24T03:08:32;9.30;99.90
45096;DHT22;30858;51.108;8.068;2023-04-24T03:10:57;9.30;99.90
45096;DHT22;30858;51.108;8.068;2023-04-24T03:13:23;9.30;99.90
45096;DHT22;30858;51.108;8.068;2023-04-24T03:15:49;9.40;99.90
45096;DHT22;30858;51.108;8.068;2023-04-24T03:18:14;9.30;99.90
45096;DHT22;30858;51.108;8.068;2023-04-24T03:20:40;9.20;99.90
45096;DHT22;30858;51.108;8.068;2023-04-24T03:23:05;9.20;99.90
45096;DHT22;30858;51.108;8.068;2023-04-24T03:25:31;9.20;99.90
45096;DHT22;30858;51.108;8.068;2023-04-24T03:27:56;9.10;99.90
45096;DHT22;30858;51.108;8.068;2023-04-24T03:30:22;9.00;99.90
45096;DHT22;30858;51.108;8.068;2023-04-24T03:32:47;9.00;99.90
45096;DHT22;30858;51.108;8.068;2023-04-24T03:35:13;9.00;99.90
45096;DHT22;30858;51.108;8.068;2023-04-24T03:37:39;8.90;99.90
45096;DHT22;30858;51.108;8.068;2023-04-24T03:40:04;8.70;99.90
45096;DHT22;30858;51.108;8.068;2023-04-24T03:42:31;8.70;99.90
45096;DHT22;30858;51.108;8.068;2023-04-24T03:44:56;8.70;99.90
45096;DHT22;30858;51.108;8.068;2023-04-24T03:47:22;8.60;99.90
45096;DHT22;30858;51.108;8.068;2023-04-24T03:49:47;8.60;99.90
45096;DHT22;30858;51.108;8.068;2023-04-24T03:52:13;8.50;99.90
45096;DHT22;30858;51.108;8.068;2023-04-24T03:54:38;8.60;99.90
45096;DHT22;30858;51.108;8.068;2023-04-24T03:57:04;8.60;99.90
45096;DHT22;30858;51.108;8.068;2023-04-24T03:59:30;8.60;99.90
45096;DHT22;30858;51.108;8.068;2023-04-24T04:01:56;8.60;99.90
45096;DHT22;30858;51.108;8.068;2023-04-24T04:04:21;8.50;99.90
45096;DHT22;30858;51.108;8.068;2023-04-24T04:06:47;8.50;99.90
45096;DHT22;30858;51.108;8.068;2023-04-24T04:09:13;8.50;99.90
45096;DHT22;30858;51.108;8.068;2023-04-24T04:11:38;8.40;99.90
45096;DHT22;30858;51.108;8.068;2023-04-24T04:14:04;8.40;99.90
45096;DHT22;30858;51.108;8.068;2023-04-24T04:16:30;8.40;99.90
45096;DHT22;30858;51.108;8.068;2023-04-24T04:18:56;8.40;99.90
45096;DHT22;30858;51.108;8.068;2023-04-24T04:21:21;8.40;99.90
45096;DHT22;30858;51.108;8.068;2023-04-24T04:23:47;8.40;99.90
45096;DHT22;30858;51.108;8.068;2023-04-24T04:26:13;8.30;99.90
45096;DHT22;30858;51.108;8.068;2023-04-24T04:28:39;8.40;99.90
45096;DHT22;30858;51.108;8.068;2023-04-24T04:31:05;8.30;99.90
45096;DHT22;30858;51.108;8.068;2023-04-24T04:33:33;8.30;99.90
45096;DHT22;30858;51.108;8.068;2023-04-24T04:35:58;8.20;99.90
45096;DHT22;30858;51.108;8.068;2023-04-24T04:38:25;8.20;99.90
45096;DHT22;30858;51.108;8.068;2023-04-24T04:40:51;8.10;99.90
45096;DHT22;30858;51.108;8.068;2023-04-24T04:43:17;8.00;99.90
45096;DHT22;30858;51.108;8.068;2023-04-24T04:45:42;8.00;99.90
45096;DHT22;30858;51.108;8.068;2023-04-24T04:48:09;7.90;99.90
45096;DHT22;30858;51.108;8.068;2023-04-24T04:50:35;7.90;99.90
45096;DHT22;30858;51.108;8.068;2023-04-24T04:53:01;7.90;99.90
45096;DHT22;30858;51.108;8.068;2023-04-24T04:55:26;7.90;99.90
45096;DHT22;30858;51.108;8.068;2023-04-24T04:57:52;7.90;99.90
45096;DHT22;30858;51.108;8.068;2023-04-24T05:00:18;7.80;99.90
45096;DHT22;30858;51.108;8.068;2023-04-24T05:02:44;7.80;99.90
45096;DHT22;30858;51.108;8.068;2023-04-24T05:05:09;7.80;99.90
45096;DHT22;30858;51.108;8.068;2023-04-24T05:07:35;7.80;99.90
45096;DHT22;30858;51.108;8.068;2023-04-24T05:10:01;7.90;99.90
45096;DHT22;30858;51.108;8.068;2023-04-24T05:12:26;7.90;99.90
45096;DHT22;30858;51.108;8.068;2023-04-24T05:14:52;7.80;99.90
45096;DHT22;30858;51.108;8.068;2023-04-24T05:17:17;7.90;99.90
45096;DHT22;30858;51.108;8.068;2023-04-24T05:19:43;7.90;99.90
45096;DHT22;30858;51.108;8.068;2023-04-24T05:22:09;7.90;99.90
45096;DHT22;30858;51.108;8.068;2023-04-24T05:24:36;7.90;99.90
45096;DHT22;30858;51.108;8.068;2023-04-24T05:27:02;7.90;99.90
45096;DHT22;30858;51.108;8.068;2023-04-24T05:29:29;8.00;99.90
45096;DHT22;30858;51.108;8.068;2023-04-24T05:31:56;8.00;99.90
45096;DHT22;30858;51.108;8.068;2023-04-24T05:34:22;8.00;99.90
45096;DHT22;30858;51.108;8.068;2023-04-24T05:36:48;8.00;99.90
45096;DHT22;30858;51.108;8.068;2023-04-24T05:39:14;8.00;99.90
45096;DHT22;30858;51.108;8.068;2023-04-24T05:41:40;8.00;99.90
45096;DHT22;30858;51.108;8.068;2023-04-24T05:44:05;8.10;99.90
45096;DHT22;30858;51.108;8.068;2023-04-24T05:46:31;8.10;99.90
45096;DHT22;30858;51.108;8.068;2023-04-24T05:48:56;8.00;99.90
45096;DHT22;30858;51.108;8.068;2023-04-24T05:51:22;8.10;99.90
45096;DHT22;30858;51.108;8.068;2023-04-24T05:53:47;8.00;99.90
45096;DHT22;30858;51.108;8.068;2023-04-24T05:56:13;8.00;99.90
45096;DHT22;30858;51.108;8.068;2023-04-24T05:58:38;8.00;99.90
45096;DHT22;30858;51.108;8.068;2023-04-24T06:01:05;8.00;99.90
45096;DHT22;30858;51.108;8.068;2023-04-24T06:03:31;8.00;99.90
45096;DHT22;30858;51.108;8.068;2023-04-24T06:05:56;8.00;99.90
45096;DHT22;30858;51.108;8.068;2023-04-24T06:08:22;8.00;99.90
45096;DHT22;30858;51.108;8.068;2023-04-24T06:10:47;8.10;99.90
45096;DHT22;30858;51.108;8.068;2023-04-24T06:13:13;8.20;99.90
45096;DHT22;30858;51.108;8.068;2023-04-24T06:15:38;8.20;99.90
45096;DHT22;30858;51.108;8.068;2023-04-24T06:18:04;8.20;99.90
45096;DHT22;30858;51.108;8.068;2023-04-24T06:20:29;8.30;99.90
45096;DHT22;30858;51.108;8.068;2023-04-24T06:22:55;8.30;99.90
45096;DHT22;30858;51.108;8.068;2023-04-24T06:25:21;8.30;99.90
45096;DHT22;30858;51.108;8.068;2023-04-24T06:27:46;8.20;99.90
45096;DHT22;30858;51.108;8.068;2023-04-24T06:30:12;8.10;99.90
45096;DHT22;30858;51.108;8.068;2023-04-24T06:32:38;8.20;99.90
45096;DHT22;30858;51.108;8.068;2023-04-24T06:35:04;8.20;99.90
45096;DHT22;30858;51.108;8.068;2023-04-24T06:37:30;8.20;99.90
45096;DHT22;30858;51.108;8.068;2023-04-24T06:39:55;8.30;99.90
45096;DHT22;30858;51.108;8.068;2023-04-24T06:42:21;8.30;99.90
45096;DHT22;30858;51.108;8.068;2023-04-24T06:44:47;8.30;99.90
45096;DHT22;30858;51.108;8.068;2023-04-24T06:47:13;8.30;99.90
45096;DHT22;30858;51.108;8.068;2023-04-24T06:49:39;8.30;99.90
45096;DHT22;30858;51.108;8.068;2023-04-24T06:52:05;8.30;99.90
45096;DHT22;30858;51.108;8.068;2023-04-24T06:54:31;8.30;99.90
45096;DHT22;30858;51.108;8.068;2023-04-24T06:56:57;8.20;99.90
45096;DHT22;30858;51.108;8.068;2023-04-24T06:59:25;8.30;99.90
45096;DHT22;30858;51.108;8.068;2023-04-24T07:01:51;8.30;99.90
45096;DHT22;30858;51.108;8.068;2023-04-24T07:04:17;8.30;99.90
45096;DHT22;30858;51.108;8.068;2023-04-24T07:06:44;8.40;99.90
45096;DHT22;30858;51.108;8.068;2023-04-24T07:09:11;8.40;99.90
45096;DHT22;30858;51.108;8.068;2023-04-24T07:11:36;8.40;99.90
45096;DHT22;30858;51.108;8.068;2023-04-24T07:14:04;8.50;99.90
45096;DHT22;30858;51.108;8.068;2023-04-24T07:16:29;8.60;99.90
45096;DHT22;30858;51.108;8.068;2023-04-24T07:18:55;8.60;99.90
45096;DHT22;30858;51.108;8.068;2023-04-24T07:21:20;8.60;99.90
45096;DHT22;30858;51.108;8.068;2023-04-24T07:23:46;8.60;99.90
45096;DHT22;30858;51.108;8.068;2023-04-24T07:26:12;8.60;99.90
45096;DHT22;30858;51.108;8.068;2023-04-24T07:28:39;8.60;99.90
45096;DHT22;30858;51.108;8.068;2023-04-24T07:31:05;8.40;99.90
45096;DHT22;30858;51.108;8.068;2023-04-24T07:33:31;9.30;99.90
45096;DHT22;30858;51.108;8.068;2023-04-24T07:35:56;10.10;99.90
45096;DHT22;30858;51.108;8.068;2023-04-24T07:38:22;10.30;99.90
45096;DHT22;30858;51.108;8.068;2023-04-24T07:40:48;10.80;99.90
45096;DHT22;30858;51.108;8.068;2023-04-24T07:43:14;10.70;99.90
45096;DHT22;30858;51.108;8.068;2023-04-24T07:45:40;10.60;99.90
45096;DHT22;30858;51.108;8.068;2023-04-24T07:48:06;11.00;99.90
45096;DHT22;30858;51.108;8.068;2023-04-24T07:50:31;11.00;99.90
45096;DHT22;30858;51.108;8.068;2023-04-24T07:52:57;11.30;99.90
45096;DHT22;30858;51.108;8.068;2023-04-24T07:55:23;11.10;99.90
45096;DHT22;30858;51.108;8.068;2023-04-24T07:57:48;10.60;99.90
45096;DHT22;30858;51.108;8.068;2023-04-24T08:00:14;10.60;99.90
45096;DHT22;30858;51.108;8.068;2023-04-24T08:02:40;10.60;99.90
45096;DHT22;30858;51.108;8.068;2023-04-24T08:05:06;10.50;99.90
45096;DHT22;30858;51.108;8.068;2023-04-24T08:07:32;10.20;99.90
45096;DHT22;30858;51.108;8.068;2023-04-24T08:09:58;10.70;99.90
45096;DHT22;30858;51.108;8.068;2023-04-24T08:12:24;9.90;99.90
45096;DHT22;30858;51.108;8.068;2023-04-24T08:14:50;9.30;99.90
45096;DHT22;30858;51.108;8.068;2023-04-24T08:17:17;9.00;99.90
45096;DHT22;30858;51.108;8.068;2023-04-24T08:19:42;8.90;99.90
45096;DHT22;30858;51.108;8.068;2023-04-24T08:22:12;8.70;99.90
45096;DHT22;30858;51.108;8.068;2023-04-24T08:24:38;8.80;99.90
45096;DHT22;30858;51.108;8.068;2023-04-24T08:27:04;8.70;99.90
45096;DHT22;30858;51.108;8.068;2023-04-24T08:29:29;8.50;99.90
45096;DHT22;30858;51.108;8.068;2023-04-24T08:31:55;8.40;99.90
45096;DHT22;30858;51.108;8.068;2023-04-24T08:34:21;8.20;99.90
45096;DHT22;30858;51.108;8.068;2023-04-24T08:36:47;8.10;99.90
45096;DHT22;30858;51.108;8.068;2023-04-24T08:39:12;8.30;99.90
45096;DHT22;30858;51.108;8.068;2023-04-24T08:41:41;8.30;99.90
45096;DHT22;30858;51.108;8.068;2023-04-24T08:44:09;8.30;99.90
45096;DHT22;30858;51.108;8.068;2023-04-24T08:46:35;8.30;99.90
45096;DHT22;30858;51.108;8.068;2023-04-24T08:49:02;8.30;99.90
45096;DHT22;30858;51.108;8.068;2023-04-24T08:51:29;8.30;99.90
45096;DHT22;30858;51.108;8.068;2023-04-24T08:53:56;8.30;99.90
45096;DHT22;30858;51.108;8.068;2023-04-24T08:56:23;8.40;99.90
45096;DHT22;30858;51.108;8.068;2023-04-24T08:58:50;8.30;99.90
45096;DHT22;30858;51.108;8.068;2023-04-24T09:01:18;8.10;99.90
45096;DHT22;30858;51.108;8.068;2023-04-24T09:03:45;8.10;99.90
45096;DHT22;30858;51.108;8.068;2023-04-24T09:06:11;8.00;99.90
45096;DHT22;30858;51.108;8.068;2023-04-24T09:08:38;7.90;99.90
45096;DHT22;30858;51.108;8.068;2023-04-24T09:11:05;8.00;99.90
45096;DHT22;30858;51.108;8.068;2023-04-24T09:13:30;7.90;99.90
45096;DHT22;30858;51.108;8.068;2023-04-24T09:15:57;7.90;99.90
45096;DHT22;30858;51.108;8.068;2023-04-24T09:18:24;7.80;99.90
45096;DHT22;30858;51.108;8.068;2023-04-24T09:21:06;7.40;99.90
45096;DHT22;30858;51.108;8.068;2023-04-24T09:23:32;7.20;99.90
45096;DHT22;30858;51.108;8.068;2023-04-24T09:25:59;7.10;99.90
45096;DHT22;30858;51.108;8.068;2023-04-24T09:28:36;7.10;99.90
45096;DHT22;30858;51.108;8.068;2023-04-24T09:31:07;7.20;99.90
45096;DHT22;30858;51.108;8.068;2023-04-24T09:33:33;7.20;99.90
45096;DHT22;30858;51.108;8.068;2023-04-24T09:35:59;7.20;99.90
45096;DHT22;30858;51.108;8.068;2023-04-24T09:38:36;7.10;99.90
45096;DHT22;30858;51.108;8.068;2023-04-24T09:41:02;7.10;99.90
45096;DHT22;30858;51.108;8.068;2023-04-24T09:43:30;7.10;99.90
45096;DHT22;30858;51.108;8.068;2023-04-24T09:45:57;7.00;99.90
45096;DHT22;30858;51.108;8.068;2023-04-24T09:48:34;7.00;99.90
45096;DHT22;30858;51.108;8.068;2023-04-24T09:51:02;6.90;99.90
45096;DHT22;30858;51.108;8.068;2023-04-24T09:53:29;6.90;99.90
45096;DHT22;30858;51.108;8.068;2023-04-24T09:55:55;6.80;99.90
45096;DHT22;30858;51.108;8.068;2023-04-24T09:58:27;6.90;99.90
45096;DHT22;30858;51.108;8.068;2023-04-24T10:00:54;6.60;99.90
45096;DHT22;30858;51.108;8.068;2023-04-24T10:03:23;6.70;99.90
45096;DHT22;30858;51.108;8.068;2023-04-24T10:05:51;6.70;99.90
45096;DHT22;30858;51.108;8.068;2023-04-24T10:08:17;6.60;99.90
45096;DHT22;30858;51.108;8.068;2023-04-24T10:10:46;6.50;99.90
45096;DHT22;30858;51.108;8.068;2023-04-24T10:13:13;6.60;99.90
45096;DHT22;30858;51.108;8.068;2023-04-24T10:15:41;6.60;99.90
45096;DHT22;30858;51.108;8.068;2023-04-24T10:18:08;6.60;99.90
45096;DHT22;30858;51.108;8.068;2023-04-24T10:20:36;6.60;99.90
45096;DHT22;30858;51.108;8.068;2023-04-24T10:23:03;6.70;99.90
45096;DHT22;30858;51.108;8.068;2023-04-24T10:25:31;6.80;99.90
45096;DHT22;30858;51.108;8.068;2023-04-24T10:27:58;6.70;99.90
45096;DHT22;30858;51.108;8.068;2023-04-24T10:30:26;6.70;99.90
45096;DHT22;30858;51.108;8.068;2023-04-24T10:32:51;6.80;99.90
45096;DHT22;30858;51.108;8.068;2023-04-24T10:35:18;6.90;99.90
45096;DHT22;30858;51.108;8.068;2023-04-24T10:38:00;6.90;99.90
45096;DHT22;30858;51.108;8.068;2023-04-24T10:40:31;7.00;99.90
45096;DHT22;30858;51.108;8.068;2023-04-24T10:42:58;7.10;99.90
45096;DHT22;30858;51.108;8.068;2023-04-24T10:45:24;7.20;99.90
45096;DHT22;30858;51.108;8.068;2023-04-24T10:48:02;7.30;99.90
45096;DHT22;30858;51.108;8.068;2023-04-24T10:50:42;7.40;99.90
45096;DHT22;30858;51.108;8.068;2023-04-24T10:53:13;7.40;99.90
45096;DHT22;30858;51.108;8.068;2023-04-24T10:58:14;7.40;99.90
45096;DHT22;30858;51.108;8.068;2023-04-24T11:00:42;7.50;99.90
45096;DHT22;30858;51.108;8.068;2023-04-24T11:03:30;7.50;99.90
45096;DHT22;30858;51.108;8.068;2023-04-24T11:06:04;7.70;99.90
45096;DHT22;30858;51.108;8.068;2023-04-24T11:08:44;7.70;99.90
45096;DHT22;30858;51.108;8.068;2023-04-24T11:11:15;7.80;99.90
45096;DHT22;30858;51.108;8.068;2023-04-24T11:19:08;7.60;99.90
45096;DHT22;30858;51.108;8.068;2023-04-24T11:21:45;7.70;99.90
45096;DHT22;30858;51.108;8.068;2023-04-24T11:24:23;7.90;99.90
45096;DHT22;30858;51.108;8.068;2023-04-24T11:26:51;8.00;99.90
45096;DHT22;30858;51.108;8.068;2023-04-24T11:29:19;8.00;99.90
45096;DHT22;30858;51.108;8.068;2023-04-24T11:31:46;8.10;99.90
45096;DHT22;30858;51.108;8.068;2023-04-24T11:34:17;8.00;99.90
45096;DHT22;30858;51.108;8.068;2023-04-24T11:36:44;8.20;99.90
45096;DHT22;30858;51.108;8.068;2023-04-24T11:39:09;8.10;99.90
45096;DHT22;30858;51.108;8.068;2023-04-24T11:41:36;8.10;99.90
45096;DHT22;30858;51.108;8.068;2023-04-24T11:44:03;8.10;99.90
45096;DHT22;30858;51.108;8.068;2023-04-24T11:46:31;8.00;99.90
45096;DHT22;30858;51.108;8.068;2023-04-24T11:48:58;8.00;99.90
45096;DHT22;30858;51.108;8.068;2023-04-24T11:51:24;8.00;99.90
45096;DHT22;30858;51.108;8.068;2023-04-24T11:53:56;8.00;99.90
45096;DHT22;30858;51.108;8.068;2023-04-24T11:56:23;8.00;99.90
45096;DHT22;30858;51.108;8.068;2023-04-24T11:58:50;7.90;99.90
45096;DHT22;30858;51.108;8.068;2023-04-24T12:01:17;7.90;99.90
45096;DHT22;30858;51.108;8.068;2023-04-24T12:03:47;7.80;99.90
45096;DHT22;30858;51.108;8.068;2023-04-24T12:06:13;7.90;99.90
45096;DHT22;30858;51.108;8.068;2023-04-24T12:08:39;7.90;99.90
45096;DHT22;30858;51.108;8.068;2023-04-24T12:11:06;8.00;99.90
45096;DHT22;30858;51.108;8.068;2023-04-24T12:13:35;8.00;99.90
45096;DHT22;30858;51.108;8.068;2023-04-24T12:16:02;8.10;99.90
45096;DHT22;30858;51.108;8.068;2023-04-24T12:18:28;8.10;99.90
45096;DHT22;30858;51.108;8.068;2023-04-24T12:20:54;8.00;99.90
45096;DHT22;30858;51.108;8.068;2023-04-24T12:23:35;7.90;99.90
45096;DHT22;30858;51.108;8.068;2023-04-24T12:26:03;7.80;99.90
45096;DHT22;30858;51.108;8.068;2023-04-24T12:28:35;7.70;99.90
45096;DHT22;30858;51.108;8.068;2023-04-24T12:31:01;7.60;99.90
45096;DHT22;30858;51.108;8.068;2023-04-24T12:33:27;7.50;99.90
45096;DHT22;30858;51.108;8.068;2023-04-24T12:35:53;7.50;99.90
45096;DHT22;30858;51.108;8.068;2023-04-24T12:38:23;7.50;99.90
45096;DHT22;30858;51.108;8.068;2023-04-24T12:41:05;7.60;99.90
45096;DHT22;30858;51.108;8.068;2023-04-24T12:43:31;7.60;99.90
45096;DHT22;30858;51.108;8.068;2023-04-24T12:45:57;7.80;99.90
45096;DHT22;30858;51.108;8.068;2023-04-24T12:48:22;7.90;99.90
45096;DHT22;30858;51.108;8.068;2023-04-24T12:50:48;8.10;99.90
45096;DHT22;30858;51.108;8.068;2023-04-24T12:53:14;8.40;99.90
45096;DHT22;30858;51.108;8.068;2023-04-24T12:55:40;8.20;99.90
45096;DHT22;30858;51.108;8.068;2023-04-24T12:58:06;8.30;99.90
45096;DHT22;30858;51.108;8.068;2023-04-24T13:00:32;8.20;99.90
45096;DHT22;30858;51.108;8.068;2023-04-24T13:02:57;8.20;99.90
45096;DHT22;30858;51.108;8.068;2023-04-24T13:05:23;7.90;99.90
45096;DHT22;30858;51.108;8.068;2023-04-24T13:07:48;8.00;99.90
45096;DHT22;30858;51.108;8.068;2023-04-24T13:10:14;8.30;99.90
45096;DHT22;30858;51.108;8.068;2023-04-24T13:12:40;8.50;99.90
45096;DHT22;30858;51.108;8.068;2023-04-24T13:15:06;8.80;99.90
45096;DHT22;30858;51.108;8.068;2023-04-24T13:17:32;9.10;99.90
45096;DHT22;30858;51.108;8.068;2023-04-24T13:19:58;9.00;99.90
45096;DHT22;30858;51.108;8.068;2023-04-24T13:22:24;8.80;99.90
45096;DHT22;30858;51.108;8.068;2023-04-24T13:24:50;8.70;99.90
45096;DHT22;30858;51.108;8.068;2023-04-24T13:27:16;8.80;99.90
45096;DHT22;30858;51.108;8.068;2023-04-24T13:29:42;8.80;99.90
45096;DHT22;30858;51.108;8.068;2023-04-24T13:32:08;9.10;99.90
45096;DHT22;30858;51.108;8.068;2023-04-24T13:34:34;9.20;99.90
45096;DHT22;30858;51.108;8.068;2023-04-24T13:37:02;9.20;99.90
45096;DHT22;30858;51.108;8.068;2023-04-24T13:39:31;9.10;99.90
45096;DHT22;30858;51.108;8.068;2023-04-24T13:41:57;9.10;99.90
45096;DHT22;30858;51.108;8.068;2023-04-24T13:44:23;9.10;99.90
45096;DHT22;30858;51.108;8.068;2023-04-24T13:46:52;9.10;99.90
45096;DHT22;30858;51.108;8.068;2023-04-24T13:49:19;9.00;99.90
45096;DHT22;30858;51.108;8.068;2023-04-24T13:51:46;9.00;99.90
45096;DHT22;30858;51.108;8.068;2023-04-24T13:54:11;8.90;99.90
45096;DHT22;30858;51.108;8.068;2023-04-24T13:56:37;8.90;99.90
45096;DHT22;30858;51.108;8.068;2023-04-24T13:59:02;9.00;99.90
45096;DHT22;30858;51.108;8.068;2023-04-24T14:01:28;9.00;99.90
45096;DHT22;30858;51.108;8.068;2023-04-24T14:03:54;9.10;99.90
45096;DHT22;30858;51.108;8.068;2023-04-24T14:06:20;9.20;99.90
45096;DHT22;30858;51.108;8.068;2023-04-24T14:08:47;9.30;99.90
45096;DHT22;30858;51.108;8.068;2023-04-24T14:11:12;9.20;99.90
45096;DHT22;30858;51.108;8.068;2023-04-24T14:13:40;9.30;99.90
45096;DHT22;30858;51.108;8.068;2023-04-24T14:16:06;9.40;99.90
45096;DHT22;30858;51.108;8.068;2023-04-24T14:18:32;9.50;99.90
45096;DHT22;30858;51.108;8.068;2023-04-24T14:20:57;9.50;99.90
45096;DHT22;30858;51.108;8.068;2023-04-24T14:23:23;9.50;99.90
45096;DHT22;30858;51.108;8.068;2023-04-24T14:25:49;9.70;99.90
45096;DHT22;30858;51.108;8.068;2023-04-24T14:28:20;10.20;99.90
45096;DHT22;30858;51.108;8.068;2023-04-24T14:30:47;10.00;99.90
45096;DHT22;30858;51.108;8.068;2023-04-24T14:33:12;10.00;99.90
45096;DHT22;30858;51.108;8.068;2023-04-24T14:35:39;9.80;99.90
45096;DHT22;30858;51.108;8.068;2023-04-24T14:38:05;9.80;99.90
45096;DHT22;30858;51.108;8.068;2023-04-24T14:40:31;9.70;99.90
45096;DHT22;30858;51.108;8.068;2023-04-24T14:42:57;9.50;99.90
45096;DHT22;30858;51.108;8.068;2023-04-24T14:45:24;9.70;99.90
45096;DHT22;30858;51.108;8.068;2023-04-24T14:47:49;10.00;99.90
45096;DHT22;30858;51.108;8.068;2023-04-24T14:50:15;10.10;99.90
45096;DHT22;30858;51.108;8.068;2023-04-24T14:52:41;10.40;99.90
45096;DHT22;30858;51.108;8.068;2023-04-24T14:55:06;10.30;99.90
45096;DHT22;30858;51.108;8.068;2023-04-24T14:57:33;10.50;99.90
45096;DHT22;30858;51.108;8.068;2023-04-24T14:59:59;10.70;99.90
45096;DHT22;30858;51.108;8.068;2023-04-24T15:02:24;11.20;99.90
45096;DHT22;30858;51.108;8.068;2023-04-24T15:04:50;11.40;99.90
45096;DHT22;30858;51.108;8.068;2023-04-24T15:07:15;11.40;99.90
45096;DHT22;30858;51.108;8.068;2023-04-24T15:09:41;11.00;99.90
45096;DHT22;30858;51.108;8.068;2023-04-24T15:12:08;10.80;99.90
45096;DHT22;30858;51.108;8.068;2023-04-24T15:14:34;10.90;99.90
45096;DHT22;30858;51.108;8.068;2023-04-24T15:17:00;10.50;99.90
45096;DHT22;30858;51.108;8.068;2023-04-24T15:19:26;10.30;99.90
45096;DHT22;30858;51.108;8.068;2023-04-24T15:21:51;10.40;99.90
45096;DHT22;30858;51.108;8.068;2023-04-24T15:24:17;10.40;99.90
45096;DHT22;30858;51.108;8.068;2023-04-24T15:26:42;10.50;99.90
45096;DHT22;30858;51.108;8.068;2023-04-24T15:29:08;10.50;99.90
45096;DHT22;30858;51.108;8.068;2023-04-24T15:31:33;10.70;99.90
45096;DHT22;30858;51.108;8.068;2023-04-24T15:33:59;10.90;99.90
45096;DHT22;30858;51.108;8.068;2023-04-24T15:36:24;11.30;99.90
45096;DHT22;30858;51.108;8.068;2023-04-24T15:38:50;11.30;99.90
45096;DHT22;30858;51.108;8.068;2023-04-24T15:41:15;10.90;99.90
45096;DHT22;30858;51.108;8.068;2023-04-24T15:43:41;10.60;99.90
45096;DHT22;30858;51.108;8.068;2023-04-24T15:46:07;10.50;99.90
45096;DHT22;30858;51.108;8.068;2023-04-24T15:48:33;10.20;99.90